createdAt,value
2023-02-26T00:00:15.095Z,5.13
2023-02-26T00:01:47.151Z,6.78
2023-02-26T00:03:20.102Z,5.82
2023-02-26T00:04:52.799Z,5.47
2023-02-26T00:06:26.754Z,5.28
2023-02-26T00:08:01.310Z,5.20
2023-02-26T00:09:34.089Z,4.80
2023-02-26T00:11:08.225Z,3.83
2023-02-26T00:12:41.619Z,5.22
2023-02-26T00:14:15.945Z,6.25
2023-02-26T00:15:50.290Z,6.70
2023-02-26T00:17:32.227Z,10.80
2023-02-26T00:19:07.618Z,9.55
2023-02-26T00:20:40.771Z,7.00
2023-02-26T00:22:14.099Z,4.22
2023-02-26T00:23:48.597Z,8.85
2023-02-26T00:25:21.315Z,8.73
2023-02-26T00:26:53.612Z,6.60
2023-02-26T00:28:26.925Z,7.28
2023-02-26T00:30:00.151Z,7.97
2023-02-26T00:31:33.283Z,8.90
2023-02-26T00:33:07.199Z,6.88
2023-02-26T00:34:41.118Z,6.90
2023-02-26T00:36:22.518Z,6.82
2023-02-26T00:38:00.387Z,6.80
2023-02-26T00:39:42.009Z,5.38
2023-02-26T00:41:15.819Z,5.90
2023-02-26T00:42:49.192Z,5.45
2023-02-26T00:44:22.110Z,4.78
2023-02-26T00:46:03.983Z,4.63
2023-02-26T00:47:44.980Z,4.90
2023-02-26T00:49:28.553Z,5.55
2023-02-26T00:51:08.961Z,4.28
2023-02-26T00:52:50.357Z,4.28
2023-02-26T00:54:24.830Z,4.35
2023-02-26T00:55:58.837Z,4.40
2023-02-26T00:57:31.543Z,5.07
2023-02-26T00:59:04.250Z,3.45
2023-02-26T01:00:36.953Z,3.90
2023-02-26T01:02:09.661Z,4.55
2023-02-26T01:03:42.817Z,5.05
2023-02-26T01:05:16.985Z,4.32
2023-02-26T01:06:51.108Z,4.28
2023-02-26T01:08:29.495Z,3.85
2023-02-26T01:10:01.735Z,3.70
2023-02-26T01:11:37.642Z,2.42
2023-02-26T01:13:10.943Z,2.53
2023-02-26T01:14:44.303Z,2.40
2023-02-26T01:16:22.323Z,2.20
2023-02-26T01:18:00.129Z,2.20
2023-02-26T01:19:40.906Z,2.20
2023-02-26T01:21:20.717Z,2.03
2023-02-26T01:22:56.479Z,2.00
2023-02-26T01:24:31.886Z,2.03
2023-02-26T01:26:11.429Z,1.92
2023-02-26T01:27:45.952Z,2.45
2023-02-26T01:29:19.053Z,2.20
2023-02-26T01:30:53.002Z,1.92
2023-02-26T01:32:32.203Z,2.20
2023-02-26T01:34:09.466Z,1.85
2023-02-26T01:35:46.154Z,2.35
2023-02-26T01:37:29.678Z,2.30
2023-02-26T01:39:06.502Z,2.00
2023-02-26T01:41:16.005Z,2.20
2023-02-26T01:42:53.553Z,2.10
2023-02-26T01:44:30.929Z,2.00
2023-02-26T01:46:09.889Z,2.60
2023-02-26T01:47:49.569Z,1.88
2023-02-26T01:49:23.110Z,1.98
2023-02-26T01:50:55.808Z,2.08
2023-02-26T01:53:01.597Z,2.45
2023-02-26T01:54:36.073Z,2.10
2023-02-26T01:56:13.548Z,1.90
2023-02-26T01:57:46.452Z,1.83
2023-02-26T01:59:24.315Z,2.30
2023-02-26T02:00:57.018Z,2.05
2023-02-26T02:02:30.264Z,2.00
2023-02-26T02:04:04.195Z,2.00
2023-02-26T02:05:43.917Z,1.90
2023-02-26T02:07:17.428Z,2.05
2023-02-26T02:08:49.244Z,1.83
2023-02-26T02:10:22.178Z,1.90
2023-02-26T02:12:14.335Z,2.33
2023-02-26T02:13:59.770Z,1.92
2023-02-26T02:15:43.033Z,1.70
2023-02-26T02:17:21.949Z,1.77
2023-02-26T02:19:01.216Z,2.10
2023-02-26T02:21:01.620Z,2.00
2023-02-26T02:22:54.120Z,1.92
2023-02-26T02:24:35.465Z,1.75
2023-02-26T02:26:51.315Z,1.83
2023-02-26T02:28:36.119Z,2.17
2023-02-26T02:30:26.396Z,2.00
2023-02-26T02:32:03.352Z,1.98
2023-02-26T02:33:45.241Z,1.77
2023-02-26T02:35:23.545Z,1.83
2023-02-26T02:36:59.492Z,2.55
2023-02-26T02:38:36.422Z,2.10
2023-02-26T02:40:12.276Z,2.20
2023-02-26T02:41:49.443Z,2.00
2023-02-26T02:43:25.949Z,1.88
2023-02-26T02:45:02.633Z,2.13
2023-02-26T02:46:39.442Z,2.40
2023-02-26T02:48:18.896Z,2.00
2023-02-26T02:49:56.962Z,1.80
2023-02-26T02:51:33.753Z,2.22
2023-02-26T02:53:12.120Z,2.17
2023-02-26T02:54:50.658Z,2.10
2023-02-26T02:56:26.658Z,2.08
2023-02-26T02:58:03.993Z,2.40
2023-02-26T02:59:42.112Z,1.90
2023-02-26T03:01:19.074Z,1.92
2023-02-26T03:03:01.818Z,2.05
2023-02-26T03:04:36.173Z,2.20
2023-02-26T03:06:08.263Z,2.10
2023-02-26T03:07:45.944Z,2.10
2023-02-26T03:09:19.229Z,1.98
2023-02-26T03:10:52.087Z,2.05
2023-02-26T03:12:26.959Z,2.30
2023-02-26T03:14:00.498Z,2.20
2023-02-26T03:15:40.621Z,2.35
2023-02-26T03:17:22.070Z,2.40
2023-02-26T03:19:01.721Z,2.08
2023-02-26T03:20:44.436Z,2.20
2023-02-26T03:22:22.216Z,1.70
2023-02-26T03:24:01.918Z,2.00
2023-02-26T03:25:44.625Z,1.80
2023-02-26T03:27:25.164Z,2.20
2023-02-26T03:29:03.478Z,2.20
2023-02-26T03:30:39.759Z,2.45
2023-02-26T03:32:18.453Z,1.98
2023-02-26T03:33:55.394Z,2.00
2023-02-26T03:35:35.311Z,2.38
2023-02-26T03:37:16.469Z,2.17
2023-02-26T03:38:53.440Z,2.40
2023-02-26T03:40:30.293Z,2.45
2023-02-26T03:42:07.639Z,2.10
2023-02-26T03:43:43.904Z,2.63
2023-02-26T03:45:20.095Z,2.60
2023-02-26T03:46:56.159Z,2.40
2023-02-26T03:48:31.294Z,2.40
2023-02-26T03:50:08.205Z,2.22
2023-02-26T03:51:42.146Z,2.22
2023-02-26T03:53:19.786Z,2.10
2023-02-26T03:54:57.583Z,2.97
2023-02-26T03:56:34.017Z,2.60
2023-02-26T03:58:06.056Z,2.70
2023-02-26T03:59:39.181Z,2.70
2023-02-26T04:01:18.583Z,2.35
2023-02-26T04:02:58.740Z,2.80
2023-02-26T04:04:36.037Z,2.88
2023-02-26T04:06:08.319Z,2.88
2023-02-26T04:07:41.345Z,2.80
2023-02-26T04:09:16.222Z,3.05
2023-02-26T04:10:53.389Z,3.30
2023-02-26T04:12:28.530Z,3.13
2023-02-26T04:14:01.220Z,3.28
2023-02-26T04:15:34.085Z,3.42
2023-02-26T04:17:05.940Z,3.40
2023-02-26T04:18:38.652Z,3.38
2023-02-26T04:20:12.342Z,3.58
2023-02-26T04:21:45.359Z,3.30
2023-02-26T04:23:17.109Z,3.53
2023-02-26T04:24:51.136Z,3.58
2023-02-26T04:26:24.199Z,3.40
2023-02-26T04:27:57.132Z,3.55
2023-02-26T04:29:29.834Z,3.17
2023-02-26T04:31:02.607Z,3.47
2023-02-26T04:32:35.638Z,3.58
2023-02-26T04:34:08.415Z,3.90
2023-02-26T04:35:41.243Z,3.70
2023-02-26T04:37:13.943Z,3.30
2023-02-26T04:38:45.727Z,3.40
2023-02-26T04:40:20.014Z,3.00
2023-02-26T04:41:52.731Z,3.33
2023-02-26T04:43:24.763Z,2.88
2023-02-26T04:44:57.453Z,3.30
2023-02-26T04:46:30.249Z,3.45
2023-02-26T04:48:03.034Z,3.08
2023-02-26T04:49:35.953Z,2.80
2023-02-26T04:51:08.671Z,2.80
2023-02-26T04:52:40.415Z,2.90
2023-02-26T04:54:13.094Z,2.95
2023-02-26T04:55:51.884Z,3.10
2023-02-26T04:57:25.028Z,2.78
2023-02-26T04:58:57.694Z,2.83
2023-02-26T05:00:30.434Z,2.60
2023-02-26T05:02:03.369Z,2.97
2023-02-26T05:03:36.068Z,2.95
2023-02-26T05:05:08.575Z,2.80
2023-02-26T05:06:41.850Z,2.65
2023-02-26T05:08:14.581Z,2.95
2023-02-26T05:09:47.267Z,2.80
2023-02-26T05:11:21.353Z,2.63
2023-02-26T05:12:53.260Z,2.92
2023-02-26T05:14:25.979Z,2.90
2023-02-26T05:15:58.694Z,2.92
2023-02-26T05:17:31.438Z,2.88
2023-02-26T05:19:04.165Z,3.22
2023-02-26T05:20:37.281Z,3.00
2023-02-26T05:22:10.013Z,2.97
2023-02-26T05:23:42.736Z,2.85
2023-02-26T05:25:15.510Z,2.88
2023-02-26T05:26:49.589Z,3.10
2023-02-26T05:28:22.278Z,2.88
2023-02-26T05:29:53.998Z,2.80
2023-02-26T05:31:26.801Z,3.08
2023-02-26T05:32:59.526Z,3.08
2023-02-26T05:34:32.214Z,3.00
2023-02-26T05:36:06.950Z,3.03
2023-02-26T05:37:38.892Z,3.25
2023-02-26T05:39:11.842Z,2.90
2023-02-26T05:40:44.519Z,2.92
2023-02-26T05:42:18.616Z,3.08
2023-02-26T05:43:51.393Z,3.22
2023-02-26T05:45:24.102Z,3.63
2023-02-26T05:46:56.849Z,3.17
2023-02-26T05:48:29.775Z,3.22
2023-02-26T05:50:02.694Z,3.00
2023-02-26T05:51:35.474Z,3.05
2023-02-26T05:53:08.676Z,2.92
2023-02-26T05:54:40.417Z,2.95
2023-02-26T05:56:13.109Z,3.05
2023-02-26T05:57:47.167Z,2.83
2023-02-26T05:59:18.955Z,3.03
2023-02-26T06:00:51.624Z,2.67
2023-02-26T06:02:24.420Z,2.47
2023-02-26T06:03:57.107Z,2.63
2023-02-26T06:05:29.918Z,2.20
2023-02-26T06:07:02.613Z,2.22
2023-02-26T06:08:34.386Z,2.20
2023-02-26T06:10:09.048Z,2.80
2023-02-26T06:11:40.785Z,2.38
2023-02-26T06:13:14.825Z,2.90
2023-02-26T06:14:47.508Z,2.45
2023-02-26T06:16:20.421Z,2.30
2023-02-26T06:17:53.187Z,2.30
2023-02-26T06:19:26.085Z,2.40
2023-02-26T06:20:58.756Z,2.47
2023-02-26T06:22:31.830Z,2.17
2023-02-26T06:24:04.718Z,2.42
2023-02-26T06:25:36.486Z,2.20
2023-02-26T06:27:09.154Z,2.17
2023-02-26T06:28:42.225Z,2.40
2023-02-26T06:30:15.114Z,1.90
2023-02-26T06:31:47.962Z,2.42
2023-02-26T06:33:20.934Z,2.08
2023-02-26T06:34:52.702Z,2.20
2023-02-26T06:36:25.686Z,2.30
2023-02-26T06:37:58.676Z,2.17
2023-02-26T06:39:31.407Z,2.40
2023-02-26T06:41:04.238Z,2.00
2023-02-26T06:42:37.026Z,2.20
2023-02-26T06:44:11.533Z,2.05
2023-02-26T06:45:44.445Z,1.90
2023-02-26T06:47:17.149Z,2.00
2023-02-26T06:48:49.891Z,2.10
2023-02-26T06:50:21.869Z,2.20
2023-02-26T06:51:54.598Z,2.25
2023-02-26T06:53:27.413Z,2.45
2023-02-26T06:54:59.155Z,2.00
2023-02-26T06:56:31.845Z,2.13
2023-02-26T06:58:04.544Z,1.83
2023-02-26T06:59:37.651Z,1.95
2023-02-26T07:01:10.487Z,1.90
2023-02-26T07:02:43.194Z,1.88
2023-02-26T07:04:15.876Z,2.00
2023-02-26T07:05:48.606Z,2.00
2023-02-26T07:07:21.520Z,1.92
2023-02-26T07:08:54.313Z,2.00
2023-02-26T07:10:27.056Z,2.00
2023-02-26T07:11:59.759Z,1.77
2023-02-26T07:13:32.730Z,2.35
2023-02-26T07:15:08.253Z,2.17
2023-02-26T07:16:41.357Z,1.90
2023-02-26T07:18:14.085Z,2.00
2023-02-26T07:19:47.061Z,2.50
2023-02-26T07:21:19.834Z,2.28
2023-02-26T07:22:52.546Z,2.10
2023-02-26T07:24:25.560Z,2.00
2023-02-26T07:25:58.520Z,2.20
2023-02-26T07:27:30.318Z,2.40
2023-02-26T07:29:03.201Z,2.03
2023-02-26T07:30:37.296Z,2.42
2023-02-26T07:32:09.577Z,2.20
2023-02-26T07:33:42.318Z,2.30
2023-02-26T07:35:14.994Z,2.33
2023-02-26T07:36:47.706Z,2.30
2023-02-26T07:38:20.474Z,1.98
2023-02-26T07:39:53.673Z,1.92
2023-02-26T07:41:26.357Z,2.10
2023-02-26T07:42:59.056Z,1.67
2023-02-26T07:44:31.792Z,2.10
2023-02-26T07:46:06.365Z,1.85
2023-02-26T07:47:39.133Z,1.90
2023-02-26T07:49:11.875Z,1.85
2023-02-26T07:50:45.145Z,1.77
2023-02-26T07:52:17.905Z,2.00
2023-02-26T07:53:50.592Z,1.88
2023-02-26T07:55:23.562Z,2.03
2023-02-26T07:56:56.412Z,2.03
2023-02-26T07:58:29.128Z,1.90
2023-02-26T08:00:02.002Z,1.88
2023-02-26T08:01:36.335Z,1.88
2023-02-26T08:03:09.042Z,1.73
2023-02-26T08:04:42.564Z,1.70
2023-02-26T08:06:15.604Z,2.10
2023-02-26T08:07:48.308Z,2.30
2023-02-26T08:09:21.133Z,1.80
2023-02-26T08:10:53.875Z,1.70
2023-02-26T08:12:26.669Z,2.00
2023-02-26T08:13:59.769Z,1.67
2023-02-26T08:15:32.471Z,1.90
2023-02-26T08:17:06.807Z,1.70
2023-02-26T08:18:39.518Z,1.60
2023-02-26T08:20:15.139Z,1.50
2023-02-26T08:21:47.992Z,1.63
2023-02-26T08:23:21.869Z,1.70
2023-02-26T08:24:54.673Z,1.90
2023-02-26T08:26:27.879Z,1.50
2023-02-26T08:28:01.669Z,1.60
2023-02-26T08:29:34.377Z,1.50
2023-02-26T08:31:07.540Z,1.50
2023-02-26T08:32:42.414Z,1.48
2023-02-26T08:34:15.541Z,1.40
2023-02-26T08:35:48.266Z,1.60
2023-02-26T08:37:22.591Z,1.80
2023-02-26T08:38:55.310Z,1.40
2023-02-26T08:40:28.021Z,1.50
2023-02-26T08:42:00.731Z,1.30
2023-02-26T08:43:33.544Z,1.40
2023-02-26T08:45:07.211Z,1.60
2023-02-26T08:46:40.012Z,1.60
2023-02-26T08:48:14.198Z,1.58
2023-02-26T08:49:46.863Z,1.50
2023-02-26T08:51:19.310Z,1.85
2023-02-26T08:52:52.136Z,1.92
2023-02-26T08:54:24.969Z,2.40
2023-02-26T08:55:57.649Z,3.00
2023-02-26T08:57:30.336Z,3.35
2023-02-26T08:59:03.047Z,2.28
2023-02-26T09:00:35.949Z,2.45
2023-02-26T09:02:08.796Z,1.70
2023-02-26T09:03:42.894Z,2.20
2023-02-26T09:05:16.212Z,1.83
2023-02-26T09:06:48.982Z,2.10
2023-02-26T09:08:22.138Z,2.47
2023-02-26T09:09:54.825Z,2.20
2023-02-26T09:11:30.487Z,1.92
2023-02-26T09:13:03.199Z,1.65
2023-02-26T09:14:35.934Z,2.13
2023-02-26T09:16:09.368Z,1.98
2023-02-26T09:17:42.580Z,2.00
2023-02-26T09:19:16.645Z,2.30
2023-02-26T09:20:49.476Z,1.50
2023-02-26T09:22:22.252Z,2.20
2023-02-26T09:23:54.949Z,2.17
2023-02-26T09:25:27.665Z,3.25
2023-02-26T09:27:00.661Z,2.00
2023-02-26T09:28:33.390Z,1.58
2023-02-26T09:30:07.489Z,2.40
2023-02-26T09:31:40.328Z,1.75
2023-02-26T09:33:13.175Z,2.47
2023-02-26T09:34:47.214Z,2.20
2023-02-26T09:36:19.920Z,2.40
2023-02-26T09:37:52.594Z,2.10
2023-02-26T09:39:25.497Z,1.55
2023-02-26T09:41:02.751Z,1.85
2023-02-26T09:42:54.120Z,1.40
2023-02-26T09:44:29.244Z,1.92
2023-02-26T09:46:06.882Z,2.90
2023-02-26T09:47:45.497Z,3.03
2023-02-26T09:49:27.889Z,1.83
2023-02-26T09:51:02.041Z,1.55
2023-02-26T09:52:40.698Z,1.90
2023-02-26T09:54:19.070Z,1.80
2023-02-26T09:55:55.754Z,2.53
2023-02-26T09:57:32.848Z,1.20
2023-02-26T09:59:05.579Z,1.40
2023-02-26T10:00:43.135Z,1.50
2023-02-26T10:02:22.836Z,1.60
2023-02-26T10:04:11.059Z,1.90
2023-02-26T10:05:54.765Z,1.30
2023-02-26T10:07:37.760Z,2.00
2023-02-26T10:09:31.994Z,3.08
2023-02-26T10:11:11.112Z,1.77
2023-02-26T10:12:45.899Z,2.78
2023-02-26T10:14:25.259Z,2.20
2023-02-26T10:16:05.447Z,1.55
2023-02-26T10:17:55.506Z,2.67
2023-02-26T10:19:31.841Z,1.90
2023-02-26T10:21:10.224Z,1.98
2023-02-26T10:22:54.874Z,2.03
2023-02-26T10:24:32.419Z,3.03
2023-02-26T10:26:12.440Z,2.50
2023-02-26T10:27:54.259Z,3.05
2023-02-26T10:29:35.485Z,3.85
2023-02-26T10:31:18.404Z,2.60
2023-02-26T10:33:00.079Z,3.88
2023-02-26T10:34:38.033Z,2.00
2023-02-26T10:36:19.502Z,2.42
2023-02-26T10:37:58.813Z,2.00
2023-02-26T10:39:36.009Z,1.38
2023-02-26T10:41:14.739Z,1.30
2023-02-26T10:42:50.896Z,1.65
2023-02-26T10:44:28.832Z,1.40
2023-02-26T10:46:13.871Z,1.10
2023-02-26T10:47:56.277Z,1.30
2023-02-26T10:49:51.528Z,1.20
2023-02-26T10:51:26.783Z,1.27
2023-02-26T10:53:01.225Z,1.40
2023-02-26T10:54:38.104Z,1.40
2023-02-26T10:56:15.437Z,1.20
2023-02-26T10:57:55.820Z,1.40
2023-02-26T10:59:29.048Z,1.60
2023-02-26T11:01:01.776Z,1.85
2023-02-26T11:02:38.611Z,1.45
2023-02-26T11:04:18.023Z,1.65
2023-02-26T11:05:50.771Z,1.77
2023-02-26T11:07:32.438Z,1.35
2023-02-26T11:09:16.619Z,1.40
2023-02-26T11:10:53.126Z,1.35
2023-02-26T11:12:26.058Z,1.30
2023-02-26T11:13:58.783Z,1.38
2023-02-26T11:15:32.212Z,1.20
2023-02-26T11:17:11.063Z,1.30
2023-02-26T11:18:49.179Z,1.10
2023-02-26T11:20:30.939Z,1.25
2023-02-26T11:22:06.726Z,1.63
2023-02-26T11:23:39.852Z,1.30
2023-02-26T11:25:15.559Z,1.33
2023-02-26T11:26:51.109Z,1.30
2023-02-26T11:28:26.843Z,1.33
2023-02-26T11:30:06.042Z,1.50
2023-02-26T11:31:42.050Z,1.20
2023-02-26T11:33:19.313Z,1.23
2023-02-26T11:34:53.010Z,1.35
2023-02-26T11:36:29.238Z,1.25
2023-02-26T11:38:03.737Z,1.00
2023-02-26T11:39:39.748Z,1.38
2023-02-26T11:41:14.767Z,1.50
2023-02-26T11:42:53.855Z,1.10
2023-02-26T11:44:35.689Z,1.20
2023-02-26T11:46:08.744Z,1.40
2023-02-26T11:47:41.500Z,1.35
2023-02-26T11:49:17.165Z,1.10
2023-02-26T11:50:53.501Z,1.08
2023-02-26T11:52:30.939Z,1.10
2023-02-26T11:54:03.746Z,1.27
2023-02-26T11:55:39.953Z,1.17
2023-02-26T11:57:19.582Z,1.30
2023-02-26T11:58:55.403Z,0.90
2023-02-26T12:00:32.178Z,1.25
2023-02-26T12:02:13.337Z,1.20
2023-02-26T12:03:49.108Z,1.00
2023-02-26T12:05:22.531Z,1.15
2023-02-26T12:06:56.769Z,1.10
2023-02-26T12:08:38.118Z,0.95
2023-02-26T12:10:16.584Z,1.27
2023-02-26T12:12:07.519Z,1.08
2023-02-26T12:14:02.469Z,1.20
2023-02-26T12:15:40.731Z,1.20
2023-02-26T12:17:26.508Z,1.30
2023-02-26T12:19:07.130Z,1.85
2023-02-26T12:20:47.926Z,1.17
2023-02-26T12:22:36.100Z,1.40
2023-02-26T12:24:27.899Z,1.20
2023-02-26T12:26:24.208Z,1.33
2023-02-26T12:28:11.386Z,1.15
2023-02-26T12:30:06.086Z,1.15
2023-02-26T12:31:58.338Z,1.17
2023-02-26T12:33:44.770Z,1.30
2023-02-26T12:35:38.222Z,1.15
2023-02-26T12:37:26.688Z,1.20
2023-02-26T12:39:14.195Z,1.13
2023-02-26T12:41:11.515Z,1.35
2023-02-26T12:42:56.879Z,1.33
2023-02-26T12:44:54.498Z,0.93
2023-02-26T12:46:39.834Z,1.13
2023-02-26T12:48:51.411Z,1.02
2023-02-26T12:50:41.378Z,1.17
2023-02-26T12:52:37.567Z,1.00
2023-02-26T12:54:27.008Z,1.10
2023-02-26T12:56:15.965Z,1.30
2023-02-26T12:58:13.626Z,1.27
2023-02-26T13:00:12.703Z,1.20
2023-02-26T13:02:06.217Z,1.20
2023-02-26T13:04:05.161Z,1.05
2023-02-26T13:05:58.986Z,1.00
2023-02-26T13:07:51.075Z,1.30
2023-02-26T13:09:37.185Z,1.10
2023-02-26T13:11:19.354Z,1.50
2023-02-26T13:12:59.665Z,1.08
2023-02-26T13:14:41.913Z,1.13
2023-02-26T13:16:27.720Z,1.10
2023-02-26T13:18:07.456Z,1.00
2023-02-26T13:19:48.129Z,1.05
2023-02-26T13:21:27.304Z,1.33
2023-02-26T13:23:03.036Z,1.02
2023-02-26T13:24:41.094Z,1.30
2023-02-26T13:26:16.480Z,1.35
2023-02-26T13:27:51.462Z,1.20
2023-02-26T13:29:28.506Z,1.20
2023-02-26T13:31:04.448Z,1.20
2023-02-26T13:32:38.746Z,1.00
2023-02-26T13:34:18.399Z,1.17
2023-02-26T13:35:54.622Z,1.30
2023-02-26T13:37:30.222Z,1.10
2023-02-26T13:39:30.300Z,1.10
2023-02-26T13:41:11.490Z,1.75
2023-02-26T13:42:50.622Z,1.33
2023-02-26T13:44:34.312Z,1.20
2023-02-26T13:46:21.129Z,1.20
2023-02-26T13:48:13.855Z,0.80
2023-02-26T13:49:58.657Z,0.93
2023-02-26T13:51:36.894Z,1.15
2023-02-26T13:53:57.257Z,1.40
2023-02-26T13:55:43.320Z,1.55
2023-02-26T13:57:27.860Z,1.02
2023-02-26T13:59:05.340Z,1.10
2023-02-26T14:00:48.188Z,1.10
2023-02-26T14:02:48.019Z,1.10
2023-02-26T14:04:26.491Z,1.13
2023-02-26T14:06:24.865Z,1.27
2023-02-26T14:08:28.306Z,1.20
2023-02-26T14:10:02.881Z,1.30
2023-02-26T14:11:45.845Z,1.00
2023-02-26T14:13:20.649Z,0.80
2023-02-26T14:15:26.601Z,0.93
2023-02-26T14:17:27.762Z,0.95
2023-02-26T14:19:06.516Z,1.05
2023-02-26T14:20:40.910Z,0.80
2023-02-26T14:22:23.489Z,1.00
2023-02-26T14:23:59.076Z,0.90
2023-02-26T14:25:35.765Z,0.90
2023-02-26T14:27:24.726Z,0.80
2023-02-26T14:29:07.676Z,1.05
2023-02-26T14:30:47.982Z,1.10
2023-02-26T14:32:29.268Z,1.10
2023-02-26T14:34:13.465Z,1.20
2023-02-26T14:35:51.416Z,1.42
2023-02-26T14:37:28.152Z,1.10
2023-02-26T14:39:04.346Z,1.00
2023-02-26T14:40:40.088Z,0.90
2023-02-26T14:42:15.460Z,1.20
2023-02-26T14:43:56.979Z,1.15
2023-02-26T14:45:32.018Z,1.30
2023-02-26T14:47:05.244Z,1.30
2023-02-26T14:48:39.516Z,1.13
2023-02-26T14:50:16.746Z,1.25
2023-02-26T14:52:03.627Z,1.00
2023-02-26T14:54:15.427Z,1.10
2023-02-26T14:56:00.589Z,1.17
2023-02-26T14:57:43.441Z,1.15
2023-02-26T14:59:40.236Z,1.13
2023-02-26T15:01:26.517Z,1.10
2023-02-26T15:03:24.997Z,1.40
2023-02-26T15:05:12.065Z,1.17
2023-02-26T15:07:00.339Z,1.17
2023-02-26T15:08:47.261Z,1.27
2023-02-26T15:10:34.069Z,1.13
2023-02-26T15:12:20.694Z,0.93
2023-02-26T15:14:10.486Z,1.05
2023-02-26T15:15:51.709Z,1.30
2023-02-26T15:17:35.205Z,1.10
2023-02-26T15:19:22.366Z,1.30
2023-02-26T15:21:04.183Z,1.30
2023-02-26T15:22:49.827Z,1.00
2023-02-26T15:24:22.822Z,1.10
2023-02-26T15:25:58.024Z,1.30
2023-02-26T15:27:33.011Z,1.50
2023-02-26T15:29:08.135Z,1.42
2023-02-26T15:30:43.392Z,1.20
2023-02-26T15:32:22.833Z,1.40
2023-02-26T15:33:57.622Z,1.60
2023-02-26T15:35:32.037Z,1.70
2023-02-26T15:37:04.742Z,1.90
2023-02-26T15:38:46.840Z,2.08
2023-02-26T15:40:20.427Z,1.60
2023-02-26T15:41:57.395Z,1.80
2023-02-26T15:43:30.754Z,2.08
2023-02-26T15:45:05.975Z,1.50
2023-02-26T15:46:41.414Z,1.67
2023-02-26T15:48:17.111Z,1.30
2023-02-26T15:49:50.676Z,1.10
2023-02-26T15:51:23.406Z,1.05
2023-02-26T15:53:00.461Z,1.30
2023-02-26T15:54:39.751Z,1.23
2023-02-26T15:56:19.530Z,1.30
2023-02-26T15:57:55.190Z,1.55
2023-02-26T15:59:30.345Z,1.13
2023-02-26T16:01:05.088Z,1.55
2023-02-26T16:02:37.990Z,1.05
2023-02-26T16:04:15.007Z,1.50
2023-02-26T16:05:49.771Z,1.70
2023-02-26T16:07:23.387Z,2.08
2023-02-26T16:08:56.074Z,1.50
2023-02-26T16:10:33.878Z,1.30
2023-02-26T16:12:10.015Z,1.20
2023-02-26T16:13:45.351Z,1.42
2023-02-26T16:15:25.460Z,1.60
2023-02-26T16:16:58.697Z,1.40
2023-02-26T16:18:33.602Z,1.40
2023-02-26T16:20:13.939Z,1.55
2023-02-26T16:21:47.099Z,1.02
2023-02-26T16:23:23.820Z,2.33
2023-02-26T16:25:00.242Z,1.25
2023-02-26T16:26:35.519Z,1.70
2023-02-26T16:28:16.429Z,1.50
2023-02-26T16:29:54.129Z,1.50
2023-02-26T16:31:28.410Z,1.48
2023-02-26T16:33:01.751Z,1.38
2023-02-26T16:34:40.949Z,1.63
2023-02-26T16:36:17.660Z,1.70
2023-02-26T16:37:55.040Z,1.90
2023-02-26T16:39:31.822Z,1.35
2023-02-26T16:41:09.419Z,1.70
2023-02-26T16:42:52.426Z,1.40
2023-02-26T16:44:48.100Z,1.50
2023-02-26T16:46:30.258Z,1.60
2023-02-26T16:48:06.453Z,1.50
2023-02-26T16:49:41.883Z,1.70
2023-02-26T16:51:19.873Z,1.40
2023-02-26T16:53:00.821Z,1.60
2023-02-26T16:54:36.400Z,1.50
2023-02-26T16:56:10.652Z,1.40
2023-02-26T16:57:44.716Z,1.45
2023-02-26T16:59:20.570Z,1.30
2023-02-26T17:00:57.952Z,1.60
2023-02-26T17:02:35.245Z,1.88
2023-02-26T17:04:08.859Z,2.50
2023-02-26T17:05:44.833Z,2.53
2023-02-26T17:07:23.793Z,3.35
2023-02-26T17:08:59.277Z,1.60
2023-02-26T17:10:34.762Z,2.17
2023-02-26T17:12:15.196Z,2.40
2023-02-26T17:14:03.982Z,2.15
2023-02-26T17:15:39.421Z,2.90
2023-02-26T17:17:12.394Z,2.88
2023-02-26T17:18:46.433Z,2.40
2023-02-26T17:20:19.216Z,1.98
2023-02-26T17:21:54.958Z,1.88
2023-02-26T17:23:31.444Z,3.08
2023-02-26T17:25:04.449Z,2.10
2023-02-26T17:26:37.156Z,2.25
2023-02-26T17:28:16.220Z,2.50
2023-02-26T17:29:51.546Z,2.85
2023-02-26T17:31:24.454Z,2.40
2023-02-26T17:32:57.309Z,2.20
2023-02-26T17:34:31.413Z,2.05
2023-02-26T17:36:05.800Z,2.63
2023-02-26T17:37:39.484Z,2.08
2023-02-26T17:39:14.114Z,2.00
2023-02-26T17:40:48.536Z,1.70
2023-02-26T17:42:23.015Z,1.63
2023-02-26T17:43:55.749Z,1.80
2023-02-26T17:45:28.474Z,1.50
2023-02-26T17:47:01.150Z,1.55
2023-02-26T17:48:35.296Z,2.10
2023-02-26T17:50:21.534Z,1.83
2023-02-26T17:51:54.202Z,1.55
2023-02-26T17:53:28.082Z,1.83
2023-02-26T17:55:00.794Z,2.40
2023-02-26T17:56:35.335Z,2.38
2023-02-26T17:58:13.034Z,2.80
2023-02-26T17:59:46.116Z,3.20
2023-02-26T18:01:19.131Z,2.40
2023-02-26T18:02:52.386Z,1.70
2023-02-26T18:04:25.251Z,1.55
2023-02-26T18:05:59.580Z,1.50
2023-02-26T18:07:32.259Z,1.42
2023-02-26T18:09:06.082Z,1.45
2023-02-26T18:10:39.218Z,1.70
2023-02-26T18:12:14.782Z,2.72
2023-02-26T18:13:47.525Z,1.77
2023-02-26T18:15:20.371Z,2.50
2023-02-26T18:16:55.100Z,2.15
2023-02-26T18:18:27.985Z,1.67
2023-02-26T18:20:00.723Z,1.90
2023-02-26T18:21:34.966Z,1.70
2023-02-26T18:23:08.148Z,1.77
2023-02-26T18:24:41.195Z,1.90
2023-02-26T18:26:22.713Z,1.48
2023-02-26T18:28:00.158Z,1.40
2023-02-26T18:29:32.885Z,1.60
2023-02-26T18:31:09.147Z,1.20
2023-02-26T18:32:41.952Z,1.50
2023-02-26T18:34:14.686Z,1.70
2023-02-26T18:35:51.547Z,1.60
2023-02-26T18:37:28.726Z,1.52
2023-02-26T18:39:02.441Z,1.38
2023-02-26T18:40:35.357Z,1.63
2023-02-26T18:42:08.458Z,1.50
2023-02-26T18:43:41.166Z,1.60
2023-02-26T18:45:13.876Z,1.50
2023-02-26T18:46:46.578Z,1.33
2023-02-26T18:48:21.269Z,1.42
2023-02-26T18:49:54.166Z,1.80
2023-02-26T18:51:27.198Z,1.58
2023-02-26T18:53:01.599Z,1.35
2023-02-26T18:54:34.262Z,1.50
2023-02-26T18:56:07.845Z,1.40
2023-02-26T18:57:42.330Z,1.48
2023-02-26T18:59:15.022Z,1.50
2023-02-26T19:00:47.997Z,1.95
2023-02-26T19:02:20.714Z,1.70
2023-02-26T19:03:53.405Z,1.60
2023-02-26T19:05:26.597Z,1.70
2023-02-26T19:06:59.845Z,2.90
2023-02-26T19:08:33.947Z,2.70
2023-02-26T19:10:09.326Z,2.17
2023-02-26T19:11:42.434Z,2.10
2023-02-26T19:13:15.127Z,2.15
2023-02-26T19:14:48.207Z,2.42
2023-02-26T19:16:22.672Z,2.20
2023-02-26T19:17:55.411Z,2.17
2023-02-26T19:19:28.681Z,2.25
2023-02-26T19:21:02.341Z,1.70
2023-02-26T19:22:35.055Z,1.60
2023-02-26T19:24:11.336Z,2.10
2023-02-26T19:25:44.066Z,1.90
2023-02-26T19:27:16.794Z,1.33
2023-02-26T19:28:49.646Z,1.38
2023-02-26T19:30:24.227Z,1.30
2023-02-26T19:31:57.077Z,1.40
2023-02-26T19:33:30.049Z,1.25
2023-02-26T19:35:02.762Z,1.65
2023-02-26T19:36:35.493Z,1.88
2023-02-26T19:38:09.801Z,1.65
2023-02-26T19:39:44.043Z,1.60
2023-02-26T19:41:18.683Z,1.40
2023-02-26T19:42:51.377Z,2.30
2023-02-26T19:44:27.371Z,2.95
2023-02-26T19:46:00.232Z,2.35
2023-02-26T19:47:32.955Z,3.30
2023-02-26T19:49:05.720Z,3.40
2023-02-26T19:50:38.432Z,2.47
2023-02-26T19:52:11.378Z,2.13
2023-02-26T19:53:44.184Z,2.30
2023-02-26T19:55:18.273Z,1.70
2023-02-26T19:56:51.158Z,2.00
2023-02-26T19:58:25.667Z,1.30
2023-02-26T19:59:59.325Z,1.40
2023-02-26T20:01:32.304Z,1.35
2023-02-26T20:03:05.162Z,1.38
2023-02-26T20:04:38.015Z,1.50
2023-02-26T20:06:12.495Z,1.38
2023-02-26T20:07:46.389Z,1.50
2023-02-26T20:09:20.118Z,1.50
2023-02-26T20:10:56.142Z,1.60
2023-02-26T20:12:30.201Z,1.63
2023-02-26T20:14:02.918Z,1.13
2023-02-26T20:15:35.586Z,1.40
2023-02-26T20:17:08.266Z,1.58
2023-02-26T20:18:41.236Z,1.63
2023-02-26T20:20:14.167Z,1.58
2023-02-26T20:21:46.872Z,1.50
2023-02-26T20:23:19.553Z,1.70
2023-02-26T20:24:53.110Z,1.70
2023-02-26T20:26:27.269Z,1.30
2023-02-26T20:27:59.977Z,1.20
2023-02-26T20:29:32.693Z,1.88
2023-02-26T20:31:06.659Z,1.70
2023-02-26T20:32:39.607Z,1.23
2023-02-26T20:34:12.417Z,1.45
2023-02-26T20:35:45.991Z,1.40
2023-02-26T20:37:18.968Z,1.25
2023-02-26T20:38:51.666Z,2.20
2023-02-26T20:40:24.352Z,2.22
2023-02-26T20:41:58.411Z,2.00
2023-02-26T20:43:31.130Z,2.20
2023-02-26T20:45:04.282Z,1.75
2023-02-26T20:46:38.742Z,1.90
2023-02-26T20:48:12.101Z,2.28
2023-02-26T20:49:45.029Z,1.50
2023-02-26T20:51:17.815Z,1.50
2023-02-26T20:52:50.506Z,1.13
2023-02-26T20:54:23.734Z,1.15
2023-02-26T20:55:56.792Z,1.40
2023-02-26T20:57:32.403Z,1.48
2023-02-26T20:59:05.162Z,1.30
2023-02-26T21:00:38.055Z,1.33
2023-02-26T21:02:12.659Z,1.30
2023-02-26T21:03:45.455Z,1.48
2023-02-26T21:05:18.805Z,1.33
2023-02-26T21:06:51.602Z,1.20
2023-02-26T21:08:24.389Z,1.30
2023-02-26T21:09:57.130Z,1.52
2023-02-26T21:11:31.354Z,1.45
2023-02-26T21:13:05.409Z,1.30
2023-02-26T21:14:38.116Z,1.50
2023-02-26T21:16:10.999Z,1.40
2023-02-26T21:17:44.554Z,1.50
2023-02-26T21:19:17.271Z,1.67
2023-02-26T21:20:50.364Z,1.95
2023-02-26T21:22:23.495Z,1.73
2023-02-26T21:23:56.439Z,1.77
2023-02-26T21:25:31.269Z,1.50
2023-02-26T21:27:04.291Z,1.60